sensor_id;sensor_type;location;lat;lon;timestamp;pressure;altitude;pressure_sealevel;temperature;humidity
14966;BME280;7577;45.226;5.798;2022-09-01T00:01:13;97853.03;;;20.86;76.15
14966;BME280;7577;45.226;5.798;2022-09-01T00:03:45;97850.37;;;20.89;76.71
14966;BME280;7577;45.226;5.798;2022-09-01T00:06:16;97857.39;;;20.93;76.16
14966;BME280;7577;45.226;5.798;2022-09-01T00:08:48;97858.64;;;20.95;77.18
14966;BME280;7577;45.226;5.798;2022-09-01T00:11:18;97853.92;;;20.74;77.42
14966;BME280;7577;45.226;5.798;2022-09-01T00:13:49;97859.57;;;20.78;77.28
14966;BME280;7577;45.226;5.798;2022-09-01T00:16:20;97853.08;;;20.80;79.22
14966;BME280;7577;45.226;5.798;2022-09-01T00:18:52;97850.88;;;20.79;77.81
14966;BME280;7577;45.226;5.798;2022-09-01T00:21:26;97858.91;;;20.53;79.96
14966;BME280;7577;45.226;5.798;2022-09-01T00:23:56;97857.52;;;20.53;80.28
14966;BME280;7577;45.226;5.798;2022-09-01T00:26:28;97859.78;;;20.63;80.29
14966;BME280;7577;45.226;5.798;2022-09-01T00:28:57;97861.38;;;20.64;79.76
14966;BME280;7577;45.226;5.798;2022-09-01T00:31:28;97854.90;;;20.66;79.79
14966;BME280;7577;45.226;5.798;2022-09-01T00:33:59;97852.95;;;20.67;79.95
14966;BME280;7577;45.226;5.798;2022-09-01T00:36:29;97862.00;;;20.58;81.32
14966;BME280;7577;45.226;5.798;2022-09-01T00:39:00;97864.40;;;20.44;81.99
14966;BME280;7577;45.226;5.798;2022-09-01T00:41:33;97862.80;;;20.43;82.68
14966;BME280;7577;45.226;5.798;2022-09-01T00:44:07;97868.69;;;20.35;82.99
14966;BME280;7577;45.226;5.798;2022-09-01T00:46:41;97870.95;;;20.24;82.74
14966;BME280;7577;45.226;5.798;2022-09-01T00:49:15;97867.50;;;19.87;85.67
14966;BME280;7577;45.226;5.798;2022-09-01T00:51:48;97879.41;;;19.82;85.73
14966;BME280;7577;45.226;5.798;2022-09-01T00:54:21;97880.80;;;19.64;87.38
14966;BME280;7577;45.226;5.798;2022-09-01T00:59:32;97884.89;;;19.42;89.84
14966;BME280;7577;45.226;5.798;2022-09-01T01:02:04;97890.09;;;19.26;89.87
14966;BME280;7577;45.226;5.798;2022-09-01T01:04:34;97888.94;;;19.27;89.47
14966;BME280;7577;45.226;5.798;2022-09-01T01:07:05;97890.55;;;19.34;89.66
14966;BME280;7577;45.226;5.798;2022-09-01T01:09:39;97893.53;;;19.23;90.04
14966;BME280;7577;45.226;5.798;2022-09-01T01:12:10;97894.66;;;19.46;89.30
14966;BME280;7577;45.226;5.798;2022-09-01T01:14:41;97905.72;;;19.40;88.22
14966;BME280;7577;45.226;5.798;2022-09-01T01:17:13;97906.73;;;19.59;88.22
14966;BME280;7577;45.226;5.798;2022-09-01T01:19:46;97905.08;;;19.70;87.54
14966;BME280;7577;45.226;5.798;2022-09-01T01:22:39;97914.66;;;19.73;88.06
14966;BME280;7577;45.226;5.798;2022-09-01T01:25:28;97916.86;;;19.55;88.79
14966;BME280;7577;45.226;5.798;2022-09-01T01:28:09;97917.09;;;19.62;88.60
14966;BME280;7577;45.226;5.798;2022-09-01T01:30:43;97915.83;;;19.60;87.30
14966;BME280;7577;45.226;5.798;2022-09-01T01:35:57;97914.89;;;19.62;88.65
14966;BME280;7577;45.226;5.798;2022-09-01T01:38:29;97922.48;;;19.59;88.69
14966;BME280;7577;45.226;5.798;2022-09-01T01:40:59;97922.16;;;19.66;87.65
14966;BME280;7577;45.226;5.798;2022-09-01T01:46:11;97923.33;;;19.53;88.24
14966;BME280;7577;45.226;5.798;2022-09-01T01:48:43;97930.80;;;19.29;90.05
14966;BME280;7577;45.226;5.798;2022-09-01T01:51:17;97925.06;;;19.34;89.89
14966;BME280;7577;45.226;5.798;2022-09-01T01:53:49;97929.31;;;19.37;89.34
14966;BME280;7577;45.226;5.798;2022-09-01T01:56:21;97927.37;;;19.38;87.90
14966;BME280;7577;45.226;5.798;2022-09-01T01:58:54;97928.75;;;19.38;87.88
14966;BME280;7577;45.226;5.798;2022-09-01T02:04:08;97926.10;;;19.23;89.96
14966;BME280;7577;45.226;5.798;2022-09-01T02:06:40;97931.03;;;19.24;90.54
14966;BME280;7577;45.226;5.798;2022-09-01T02:11:52;97932.84;;;19.20;91.21
14966;BME280;7577;45.226;5.798;2022-09-01T02:14:24;97929.97;;;19.16;90.80
14966;BME280;7577;45.226;5.798;2022-09-01T02:16:54;97926.50;;;19.13;91.08
14966;BME280;7577;45.226;5.798;2022-09-01T02:19:24;97932.05;;;19.19;90.49
14966;BME280;7577;45.226;5.798;2022-09-01T02:21:54;97933.08;;;19.09;91.32
14966;BME280;7577;45.226;5.798;2022-09-01T02:24:26;97935.80;;;18.79;92.65
14966;BME280;7577;45.226;5.798;2022-09-01T02:26:57;97939.81;;;18.87;93.08
14966;BME280;7577;45.226;5.798;2022-09-01T02:29:30;97935.48;;;18.98;92.36
14966;BME280;7577;45.226;5.798;2022-09-01T02:32:00;97945.19;;;18.72;93.96
14966;BME280;7577;45.226;5.798;2022-09-01T02:34:31;97948.09;;;18.81;93.87
14966;BME280;7577;45.226;5.798;2022-09-01T02:37:02;97954.43;;;18.88;92.35
14966;BME280;7577;45.226;5.798;2022-09-01T02:42:14;97947.95;;;18.72;94.39
14966;BME280;7577;45.226;5.798;2022-09-01T02:44:44;97954.43;;;18.82;93.11
14966;BME280;7577;45.226;5.798;2022-09-01T02:47:14;97955.78;;;18.76;94.09
14966;BME280;7577;45.226;5.798;2022-09-01T02:49:44;97952.20;;;18.69;94.80
14966;BME280;7577;45.226;5.798;2022-09-01T02:52:14;97951.86;;;18.65;95.13
14966;BME280;7577;45.226;5.798;2022-09-01T02:54:46;97958.10;;;18.41;97.03
14966;BME280;7577;45.226;5.798;2022-09-01T02:59:58;97954.92;;;18.31;98.03
14966;BME280;7577;45.226;5.798;2022-09-01T03:02:28;97955.47;;;18.24;97.88
14966;BME280;7577;45.226;5.798;2022-09-01T03:04:59;97951.33;;;18.45;96.31
14966;BME280;7577;45.226;5.798;2022-09-01T03:07:29;97955.89;;;18.35;97.90
14966;BME280;7577;45.226;5.798;2022-09-01T03:09:59;97954.28;;;18.34;97.95
14966;BME280;7577;45.226;5.798;2022-09-01T03:12:30;97954.97;;;18.16;98.81
14966;BME280;7577;45.226;5.798;2022-09-01T03:17:45;97952.48;;;18.23;98.20
14966;BME280;7577;45.226;5.798;2022-09-01T03:20:17;97947.87;;;17.95;100.00
14966;BME280;7577;45.226;5.798;2022-09-01T03:22:50;97944.50;;;17.89;100.00
14966;BME280;7577;45.226;5.798;2022-09-01T03:25:20;97943.75;;;18.01;100.00
14966;BME280;7577;45.226;5.798;2022-09-01T03:27:51;97944.77;;;18.17;99.40
14966;BME280;7577;45.226;5.798;2022-09-01T03:30:21;97948.84;;;18.31;98.35
14966;BME280;7577;45.226;5.798;2022-09-01T03:32:51;97949.74;;;18.29;97.39
14966;BME280;7577;45.226;5.798;2022-09-01T03:35:23;97944.70;;;18.52;96.01
14966;BME280;7577;45.226;5.798;2022-09-01T03:37:56;97946.68;;;18.63;95.50
14966;BME280;7577;45.226;5.798;2022-09-01T03:40:28;97944.58;;;18.48;95.35
14966;BME280;7577;45.226;5.798;2022-09-01T03:43:01;97951.55;;;18.19;96.71
14966;BME280;7577;45.226;5.798;2022-09-01T03:45:31;97949.01;;;18.41;95.33
14966;BME280;7577;45.226;5.798;2022-09-01T03:50:47;97939.89;;;18.61;95.58
14966;BME280;7577;45.226;5.798;2022-09-01T03:53:20;97939.90;;;18.67;94.22
14966;BME280;7577;45.226;5.798;2022-09-01T03:55:51;97942.02;;;18.43;95.96
14966;BME280;7577;45.226;5.798;2022-09-01T03:58:22;97939.16;;;18.25;97.77
14966;BME280;7577;45.226;5.798;2022-09-01T04:00:55;97940.58;;;18.11;99.32
14966;BME280;7577;45.226;5.798;2022-09-01T04:03:31;97935.92;;;17.97;100.00
14966;BME280;7577;45.226;5.798;2022-09-01T04:06:02;97937.88;;;18.17;99.38
14966;BME280;7577;45.226;5.798;2022-09-01T04:08:32;97933.43;;;17.98;100.00
14966;BME280;7577;45.226;5.798;2022-09-01T04:11:09;97935.49;;;18.01;100.00
14966;BME280;7577;45.226;5.798;2022-09-01T04:13:37;97933.30;;;17.80;100.00
14966;BME280;7577;45.226;5.798;2022-09-01T04:16:16;97932.97;;;17.61;100.00
14966;BME280;7577;45.226;5.798;2022-09-01T04:19:06;97929.99;;;17.80;100.00
14966;BME280;7577;45.226;5.798;2022-09-01T04:21:39;97932.66;;;17.89;100.00
14966;BME280;7577;45.226;5.798;2022-09-01T04:26:58;97929.89;;;17.83;100.00
14966;BME280;7577;45.226;5.798;2022-09-01T04:29:30;97931.95;;;18.00;100.00
14966;BME280;7577;45.226;5.798;2022-09-01T04:32:03;97935.40;;;17.83;100.00
14966;BME280;7577;45.226;5.798;2022-09-01T04:37:16;97930.30;;;17.73;100.00
14966;BME280;7577;45.226;5.798;2022-09-01T04:39:54;97935.70;;;17.96;100.00
14966;BME280;7577;45.226;5.798;2022-09-01T04:42:26;97940.39;;;17.95;100.00
14966;BME280;7577;45.226;5.798;2022-09-01T04:44:56;97936.03;;;17.74;100.00
14966;BME280;7577;45.226;5.798;2022-09-01T04:50:09;97942.77;;;17.85;100.00
14966;BME280;7577;45.226;5.798;2022-09-01T04:52:44;97943.30;;;17.99;100.00
14966;BME280;7577;45.226;5.798;2022-09-01T04:57:58;97945.01;;;17.97;100.00
14966;BME280;7577;45.226;5.798;2022-09-01T05:00:30;97940.22;;;18.00;100.00
14966;BME280;7577;45.226;5.798;2022-09-01T05:03:02;97942.80;;;17.91;100.00
14966;BME280;7577;45.226;5.798;2022-09-01T05:05:38;97945.57;;;17.97;100.00
14966;BME280;7577;45.226;5.798;2022-09-01T05:08:12;97942.77;;;18.05;100.00
14966;BME280;7577;45.226;5.798;2022-09-01T05:10:46;97942.69;;;17.93;100.00
14966;BME280;7577;45.226;5.798;2022-09-01T05:13:18;97940.57;;;17.64;100.00
14966;BME280;7577;45.226;5.798;2022-09-01T05:18:40;97941.70;;;17.98;100.00
14966;BME280;7577;45.226;5.798;2022-09-01T05:21:13;97943.59;;;18.12;100.00
14966;BME280;7577;45.226;5.798;2022-09-01T05:23:45;97941.25;;;18.28;99.64
14966;BME280;7577;45.226;5.798;2022-09-01T05:26:19;97941.56;;;18.21;99.61
14966;BME280;7577;45.226;5.798;2022-09-01T05:28:54;97943.41;;;17.96;100.00
14966;BME280;7577;45.226;5.798;2022-09-01T05:31:26;97943.33;;;17.84;100.00
14966;BME280;7577;45.226;5.798;2022-09-01T05:36:41;97945.76;;;18.33;100.00
14966;BME280;7577;45.226;5.798;2022-09-01T05:39:12;97951.89;;;18.24;100.00
14966;BME280;7577;45.226;5.798;2022-09-01T05:41:43;97952.48;;;18.23;100.00
14966;BME280;7577;45.226;5.798;2022-09-01T05:46:58;97954.77;;;18.86;97.76
14966;BME280;7577;45.226;5.798;2022-09-01T05:49:29;97949.73;;;19.00;96.67
14966;BME280;7577;45.226;5.798;2022-09-01T05:54:41;97947.45;;;21.27;85.10
14966;BME280;7577;45.226;5.798;2022-09-01T05:57:11;97956.48;;;22.63;76.79
14966;BME280;7577;45.226;5.798;2022-09-01T05:59:42;97949.08;;;24.22;68.67
14966;BME280;7577;45.226;5.798;2022-09-01T06:02:14;97949.06;;;25.71;59.84
14966;BME280;7577;45.226;5.798;2022-09-01T06:04:44;97959.70;;;27.02;53.90
14966;BME280;7577;45.226;5.798;2022-09-01T06:07:15;97949.43;;;27.65;52.08
14966;BME280;7577;45.226;5.798;2022-09-01T06:09:49;97948.41;;;27.78;50.70
14966;BME280;7577;45.226;5.798;2022-09-01T06:12:21;97942.81;;;27.60;50.57
14966;BME280;7577;45.226;5.798;2022-09-01T06:14:53;97939.22;;;27.53;50.95
14966;BME280;7577;45.226;5.798;2022-09-01T06:17:26;97940.41;;;27.45;49.76
14966;BME280;7577;45.226;5.798;2022-09-01T06:19:58;97946.78;;;27.17;51.81
14966;BME280;7577;45.226;5.798;2022-09-01T06:22:30;97945.63;;;27.39;51.58
14966;BME280;7577;45.226;5.798;2022-09-01T06:25:02;97945.22;;;27.34;51.27
14966;BME280;7577;45.226;5.798;2022-09-01T06:27:35;97939.04;;;27.48;50.63
14966;BME280;7577;45.226;5.798;2022-09-01T06:30:08;97944.50;;;28.36;48.38
14966;BME280;7577;45.226;5.798;2022-09-01T06:32:41;97938.25;;;29.59;45.33
14966;BME280;7577;45.226;5.798;2022-09-01T06:35:16;97937.59;;;30.59;41.43
14966;BME280;7577;45.226;5.798;2022-09-01T06:37:49;97947.92;;;31.29;40.23
14966;BME280;7577;45.226;5.798;2022-09-01T06:40:23;97947.42;;;31.22;39.50
14966;BME280;7577;45.226;5.798;2022-09-01T06:56:02;97938.50;;;29.24;44.45
14966;BME280;7577;45.226;5.798;2022-09-01T07:01:21;97940.16;;;30.13;42.15
14966;BME280;7577;45.226;5.798;2022-09-01T07:03:53;97948.98;;;31.12;40.47
14966;BME280;7577;45.226;5.798;2022-09-01T07:06:26;97947.59;;;31.61;40.00
14966;BME280;7577;45.226;5.798;2022-09-01T07:08:58;97942.53;;;32.22;38.35
14966;BME280;7577;45.226;5.798;2022-09-01T07:11:31;97943.23;;;33.15;36.71
14966;BME280;7577;45.226;5.798;2022-09-01T07:14:04;97946.04;;;33.67;35.50
14966;BME280;7577;45.226;5.798;2022-09-01T07:16:36;97940.41;;;33.15;35.39
14966;BME280;7577;45.226;5.798;2022-09-01T07:19:09;97945.74;;;32.01;37.90
14966;BME280;7577;45.226;5.798;2022-09-01T07:21:42;97947.33;;;32.02;37.56
14966;BME280;7577;45.226;5.798;2022-09-01T07:24:13;97947.62;;;31.23;38.74
14966;BME280;7577;45.226;5.798;2022-09-01T07:26:47;97949.95;;;32.12;37.47
14966;BME280;7577;45.226;5.798;2022-09-01T07:29:18;97954.99;;;30.99;39.63
14966;BME280;7577;45.226;5.798;2022-09-01T07:31:50;97951.11;;;30.74;39.89
14966;BME280;7577;45.226;5.798;2022-09-01T07:37:09;97949.66;;;29.02;42.35
14966;BME280;7577;45.226;5.798;2022-09-01T07:39:41;97947.77;;;29.14;42.90
14966;BME280;7577;45.226;5.798;2022-09-01T07:44:52;97953.48;;;29.29;43.33
14966;BME280;7577;45.226;5.798;2022-09-01T07:47:22;97956.69;;;31.34;39.43
14966;BME280;7577;45.226;5.798;2022-09-01T07:49:52;97962.52;;;29.57;41.82
14966;BME280;7577;45.226;5.798;2022-09-01T07:52:23;97963.47;;;30.80;40.63
14966;BME280;7577;45.226;5.798;2022-09-01T07:54:53;97959.37;;;32.37;38.78
14966;BME280;7577;45.226;5.798;2022-09-01T07:57:23;97956.03;;;31.88;38.40
14966;BME280;7577;45.226;5.798;2022-09-01T08:02:35;97950.08;;;31.18;38.47
14966;BME280;7577;45.226;5.798;2022-09-01T08:05:08;97952.68;;;30.90;39.10
14966;BME280;7577;45.226;5.798;2022-09-01T08:10:25;97945.22;;;33.58;35.84
14966;BME280;7577;45.226;5.798;2022-09-01T08:12:56;97946.23;;;34.29;34.84
14966;BME280;7577;45.226;5.798;2022-09-01T08:15:26;97940.75;;;35.28;33.06
14966;BME280;7577;45.226;5.798;2022-09-01T08:17:56;97935.71;;;33.77;34.07
14966;BME280;7577;45.226;5.798;2022-09-01T08:20:27;97934.36;;;33.33;35.10
14966;BME280;7577;45.226;5.798;2022-09-01T08:22:58;97928.04;;;33.85;34.66
14966;BME280;7577;45.226;5.798;2022-09-01T08:28:09;97938.96;;;33.51;34.81
14966;BME280;7577;45.226;5.798;2022-09-01T08:30:41;97944.38;;;34.46;33.28
14966;BME280;7577;45.226;5.798;2022-09-01T08:33:12;97939.00;;;33.15;35.40
14966;BME280;7577;45.226;5.798;2022-09-01T08:38:24;97936.39;;;31.35;37.67
14966;BME280;7577;45.226;5.798;2022-09-01T08:43:49;97933.88;;;32.83;37.22
14966;BME280;7577;45.226;5.798;2022-09-01T08:46:23;97941.65;;;32.25;37.33
14966;BME280;7577;45.226;5.798;2022-09-01T08:48:55;97943.83;;;31.71;38.29
14966;BME280;7577;45.226;5.798;2022-09-01T08:51:31;97939.81;;;32.57;37.33
14966;BME280;7577;45.226;5.798;2022-09-01T08:54:05;97936.64;;;31.44;38.70
14966;BME280;7577;45.226;5.798;2022-09-01T08:56:36;97936.70;;;32.83;37.31
14966;BME280;7577;45.226;5.798;2022-09-01T08:59:07;97935.11;;;32.70;37.58
14966;BME280;7577;45.226;5.798;2022-09-01T09:01:41;97941.72;;;31.64;38.18
14966;BME280;7577;45.226;5.798;2022-09-01T09:04:27;97937.72;;;30.97;39.64
14966;BME280;7577;45.226;5.798;2022-09-01T09:06:56;97931.22;;;29.04;42.94
14966;BME280;7577;45.226;5.798;2022-09-01T09:09:32;97931.25;;;28.94;43.98
14966;BME280;7577;45.226;5.798;2022-09-01T09:15:16;97924.70;;;30.80;40.87
14966;BME280;7577;45.226;5.798;2022-09-01T09:20:28;97912.55;;;28.73;45.87
14966;BME280;7577;45.226;5.798;2022-09-01T09:23:00;97914.02;;;27.91;45.37
14966;BME280;7577;45.226;5.798;2022-09-01T09:25:31;97900.47;;;28.47;45.86
14966;BME280;7577;45.226;5.798;2022-09-01T09:28:03;97905.57;;;28.66;45.40
14966;BME280;7577;45.226;5.798;2022-09-01T09:30:33;97907.65;;;27.88;45.83
14966;BME280;7577;45.226;5.798;2022-09-01T09:33:07;97908.06;;;27.51;47.96
14966;BME280;7577;45.226;5.798;2022-09-01T09:35:38;97905.66;;;27.28;49.60
14966;BME280;7577;45.226;5.798;2022-09-01T09:38:20;97902.08;;;27.52;47.77
14966;BME280;7577;45.226;5.798;2022-09-01T09:40:58;97890.66;;;27.58;48.63
14966;BME280;7577;45.226;5.798;2022-09-01T09:43:31;97889.06;;;27.68;47.87
14966;BME280;7577;45.226;5.798;2022-09-01T09:49:16;97885.89;;;27.48;49.63
14966;BME280;7577;45.226;5.798;2022-09-01T09:51:50;97887.05;;;27.05;50.36
14966;BME280;7577;45.226;5.798;2022-09-01T09:54:23;97881.47;;;26.33;51.45
14966;BME280;7577;45.226;5.798;2022-09-01T09:57:09;97878.92;;;26.00;53.21
14966;BME280;7577;45.226;5.798;2022-09-01T09:59:43;97878.24;;;25.90;54.23
14966;BME280;7577;45.226;5.798;2022-09-01T10:02:25;97879.59;;;26.13;54.34
14966;BME280;7577;45.226;5.798;2022-09-01T10:04:59;97865.88;;;26.32;55.42
14966;BME280;7577;45.226;5.798;2022-09-01T10:07:32;97864.42;;;26.66;52.64
14966;BME280;7577;45.226;5.798;2022-09-01T10:10:06;97857.38;;;26.52;51.12
14966;BME280;7577;45.226;5.798;2022-09-01T10:12:36;97852.16;;;26.40;53.51
14966;BME280;7577;45.226;5.798;2022-09-01T10:15:09;97850.67;;;26.70;52.34
14966;BME280;7577;45.226;5.798;2022-09-01T10:17:42;97855.75;;;26.40;51.13
14966;BME280;7577;45.226;5.798;2022-09-01T10:20:17;97843.69;;;26.12;53.79
14966;BME280;7577;45.226;5.798;2022-09-01T10:22:50;97849.55;;;26.30;54.37
14966;BME280;7577;45.226;5.798;2022-09-01T10:25:23;97845.64;;;25.67;53.29
14966;BME280;7577;45.226;5.798;2022-09-01T10:27:56;97840.27;;;25.71;53.95
14966;BME280;7577;45.226;5.798;2022-09-01T10:30:29;97833.09;;;25.70;54.48
14966;BME280;7577;45.226;5.798;2022-09-01T10:35:44;97836.09;;;25.71;55.56
14966;BME280;7577;45.226;5.798;2022-09-01T10:38:18;97843.74;;;25.85;55.35
14966;BME280;7577;45.226;5.798;2022-09-01T10:40:50;97839.17;;;25.86;54.95
14966;BME280;7577;45.226;5.798;2022-09-01T10:46:49;97841.97;;;25.86;53.25
14966;BME280;7577;45.226;5.798;2022-09-01T10:53:02;97835.31;;;25.74;55.40
14966;BME280;7577;45.226;5.798;2022-09-01T10:55:36;97836.77;;;25.85;54.26
14966;BME280;7577;45.226;5.798;2022-09-01T10:58:18;97829.50;;;26.07;56.93
14966;BME280;7577;45.226;5.798;2022-09-01T11:00:52;97824.73;;;26.04;58.06
14966;BME280;7577;45.226;5.798;2022-09-01T11:06:59;97826.83;;;26.42;56.05
14966;BME280;7577;45.226;5.798;2022-09-01T11:09:33;97828.19;;;26.21;55.62
14966;BME280;7577;45.226;5.798;2022-09-01T11:12:43;97820.12;;;26.02;55.46
14966;BME280;7577;45.226;5.798;2022-09-01T11:15:36;97816.13;;;26.03;55.72
14966;BME280;7577;45.226;5.798;2022-09-01T11:18:14;97812.56;;;26.03;55.47
14966;BME280;7577;45.226;5.798;2022-09-01T11:20:47;97811.20;;;26.13;58.08
14966;BME280;7577;45.226;5.798;2022-09-01T11:23:24;97806.41;;;26.14;57.00
14966;BME280;7577;45.226;5.798;2022-09-01T11:25:57;97802.64;;;26.19;58.04
14966;BME280;7577;45.226;5.798;2022-09-01T11:28:45;97801.69;;;26.35;56.53
14966;BME280;7577;45.226;5.798;2022-09-01T11:31:23;97792.31;;;26.30;55.40
14966;BME280;7577;45.226;5.798;2022-09-01T11:34:00;97787.73;;;26.39;55.02
14966;BME280;7577;45.226;5.798;2022-09-01T11:36:32;97787.36;;;26.51;54.38
14966;BME280;7577;45.226;5.798;2022-09-01T11:39:07;97785.69;;;26.22;53.62
14966;BME280;7577;45.226;5.798;2022-09-01T11:41:49;97783.70;;;25.71;54.45
14966;BME280;7577;45.226;5.798;2022-09-01T11:57:31;97769.40;;;26.52;57.44
14966;BME280;7577;45.226;5.798;2022-09-01T12:02:46;97765.95;;;26.17;55.46
14966;BME280;7577;45.226;5.798;2022-09-01T12:05:27;97758.98;;;26.17;56.92
14966;BME280;7577;45.226;5.798;2022-09-01T12:08:00;97750.43;;;26.30;56.87
14966;BME280;7577;45.226;5.798;2022-09-01T12:10:34;97744.04;;;26.26;55.37
14966;BME280;7577;45.226;5.798;2022-09-01T12:13:08;97752.41;;;26.30;56.08
14966;BME280;7577;45.226;5.798;2022-09-01T12:15:40;97746.61;;;26.18;54.74
14966;BME280;7577;45.226;5.798;2022-09-01T12:18:13;97747.62;;;26.20;55.83
14966;BME280;7577;45.226;5.798;2022-09-01T12:20:45;97747.63;;;26.37;57.67
14966;BME280;7577;45.226;5.798;2022-09-01T12:23:23;97746.22;;;26.27;56.28
14966;BME280;7577;45.226;5.798;2022-09-01T12:25:55;97746.39;;;26.14;54.82
14966;BME280;7577;45.226;5.798;2022-09-01T12:28:28;97748.42;;;26.27;55.59
14966;BME280;7577;45.226;5.798;2022-09-01T12:31:03;97745.45;;;26.44;55.68
14966;BME280;7577;45.226;5.798;2022-09-01T12:36:24;97738.11;;;26.91;53.62
14966;BME280;7577;45.226;5.798;2022-09-01T12:38:55;97734.70;;;26.98;55.48
14966;BME280;7577;45.226;5.798;2022-09-01T12:41:37;97733.52;;;26.82;53.85
14966;BME280;7577;45.226;5.798;2022-09-01T12:44:26;97737.72;;;26.68;54.00
14966;BME280;7577;45.226;5.798;2022-09-01T13:00:11;97738.69;;;27.22;54.15
14966;BME280;7577;45.226;5.798;2022-09-01T13:05:28;97733.67;;;27.28;54.40
14966;BME280;7577;45.226;5.798;2022-09-01T13:08:00;97725.89;;;27.31;52.49
14966;BME280;7577;45.226;5.798;2022-09-01T13:10:34;97725.48;;;27.33;52.79
14966;BME280;7577;45.226;5.798;2022-09-01T13:13:06;97725.48;;;27.33;52.79
14966;BME280;7577;45.226;5.798;2022-09-01T13:15:39;97729.09;;;27.16;52.51
14966;BME280;7577;45.226;5.798;2022-09-01T13:18:11;97733.09;;;27.22;52.79
14966;BME280;7577;45.226;5.798;2022-09-01T13:23:25;97730.61;;;27.52;55.50
14966;BME280;7577;45.226;5.798;2022-09-01T13:25:55;97723.61;;;27.59;54.26
14966;BME280;7577;45.226;5.798;2022-09-01T13:28:27;97722.12;;;27.76;54.34
14966;BME280;7577;45.226;5.798;2022-09-01T13:30:58;97716.38;;;27.65;54.98
14966;BME280;7577;45.226;5.798;2022-09-01T13:36:17;97712.56;;;27.70;52.32
14966;BME280;7577;45.226;5.798;2022-09-01T13:38:47;97708.21;;;27.55;50.94
14966;BME280;7577;45.226;5.798;2022-09-01T13:41:18;97715.44;;;27.49;51.96
14966;BME280;7577;45.226;5.798;2022-09-01T13:43:49;97708.11;;;27.30;49.93
14966;BME280;7577;45.226;5.798;2022-09-01T13:46:19;97704.77;;;26.99;51.48
14966;BME280;7577;45.226;5.798;2022-09-01T13:48:49;97704.77;;;26.99;51.48
14966;BME280;7577;45.226;5.798;2022-09-01T13:51:25;97691.77;;;26.97;50.43
14966;BME280;7577;45.226;5.798;2022-09-01T13:53:57;97703.17;;;26.98;49.42
14966;BME280;7577;45.226;5.798;2022-09-01T13:56:28;97702.14;;;27.10;52.48
14966;BME280;7577;45.226;5.798;2022-09-01T13:58:58;97701.75;;;27.22;49.46
14966;BME280;7577;45.226;5.798;2022-09-01T14:01:29;97697.34;;;27.07;47.97
14966;BME280;7577;45.226;5.798;2022-09-01T14:03:59;97691.78;;;27.00;47.61
14966;BME280;7577;45.226;5.798;2022-09-01T14:06:31;97691.78;;;27.00;47.61
14966;BME280;7577;45.226;5.798;2022-09-01T14:09:02;97690.38;;;26.97;48.97
14966;BME280;7577;45.226;5.798;2022-09-01T14:11:34;97692.17;;;27.02;48.78
14966;BME280;7577;45.226;5.798;2022-09-01T14:14:04;97690.16;;;27.06;48.99
14966;BME280;7577;45.226;5.798;2022-09-01T14:16:35;97694.73;;;27.15;50.06
14966;BME280;7577;45.226;5.798;2022-09-01T14:21:46;97686.14;;;27.28;48.14
14966;BME280;7577;45.226;5.798;2022-09-01T14:24:17;97686.35;;;27.26;47.91
14966;BME280;7577;45.226;5.798;2022-09-01T14:26:50;97685.15;;;27.30;48.11
14966;BME280;7577;45.226;5.798;2022-09-01T14:29:20;97679.57;;;27.23;47.56
14966;BME280;7577;45.226;5.798;2022-09-01T14:31:50;97684.53;;;27.31;46.97
14966;BME280;7577;45.226;5.798;2022-09-01T14:37:04;97678.63;;;27.58;50.12
14966;BME280;7577;45.226;5.798;2022-09-01T14:42:16;97674.27;;;27.53;46.35
14966;BME280;7577;45.226;5.798;2022-09-01T14:44:47;97674.27;;;27.53;46.35
14966;BME280;7577;45.226;5.798;2022-09-01T14:47:18;97673.43;;;27.56;46.79
14966;BME280;7577;45.226;5.798;2022-09-01T14:49:50;97671.98;;;27.67;46.97
14966;BME280;7577;45.226;5.798;2022-09-01T14:52:23;97667.81;;;27.63;45.99
14966;BME280;7577;45.226;5.798;2022-09-01T14:55:08;97667.81;;;27.63;45.99
14966;BME280;7577;45.226;5.798;2022-09-01T15:10:44;97669.05;;;27.59;44.89
14966;BME280;7577;45.226;5.798;2022-09-01T15:15:55;97659.63;;;27.61;45.51
14966;BME280;7577;45.226;5.798;2022-09-01T15:18:25;97659.45;;;27.60;45.40
14966;BME280;7577;45.226;5.798;2022-09-01T15:20:56;97659.39;;;27.67;45.92
14966;BME280;7577;45.226;5.798;2022-09-01T15:23:31;97655.60;;;27.69;45.19
14966;BME280;7577;45.226;5.798;2022-09-01T15:26:05;97659.61;;;27.68;47.34
14966;BME280;7577;45.226;5.798;2022-09-01T15:28:36;97659.61;;;27.68;47.34
14966;BME280;7577;45.226;5.798;2022-09-01T15:31:07;97649.38;;;27.69;42.88
14966;BME280;7577;45.226;5.798;2022-09-01T15:36:28;97641.85;;;27.59;40.31
14966;BME280;7577;45.226;5.798;2022-09-01T15:38:59;97648.44;;;27.61;40.27
14966;BME280;7577;45.226;5.798;2022-09-01T15:44:20;97631.41;;;27.67;39.52
14966;BME280;7577;45.226;5.798;2022-09-01T15:46:51;97637.84;;;27.64;39.72
14966;BME280;7577;45.226;5.798;2022-09-01T15:49:22;97635.83;;;27.64;39.98
14966;BME280;7577;45.226;5.798;2022-09-01T15:51:54;97626.78;;;27.72;41.60
14966;BME280;7577;45.226;5.798;2022-09-01T15:54:25;97644.81;;;27.67;39.62
14966;BME280;7577;45.226;5.798;2022-09-01T15:56:55;97630.47;;;27.58;39.52
14966;BME280;7577;45.226;5.798;2022-09-01T15:59:28;97634.08;;;27.55;40.04
14966;BME280;7577;45.226;5.798;2022-09-01T16:15:25;97633.59;;;27.71;43.05
14966;BME280;7577;45.226;5.798;2022-09-01T16:18:02;97634.83;;;27.63;43.76
14966;BME280;7577;45.226;5.798;2022-09-01T16:20:37;97634.83;;;27.63;43.76
14966;BME280;7577;45.226;5.798;2022-09-01T16:23:14;97634.30;;;27.53;42.81
14966;BME280;7577;45.226;5.798;2022-09-01T16:25:45;97627.09;;;27.59;42.80
14966;BME280;7577;45.226;5.798;2022-09-01T16:28:23;97620.92;;;27.52;42.78
14966;BME280;7577;45.226;5.798;2022-09-01T16:30:57;97627.35;;;27.46;44.08
14966;BME280;7577;45.226;5.798;2022-09-01T16:39:29;97620.02;;;27.30;44.86
14966;BME280;7577;45.226;5.798;2022-09-01T16:42:06;97623.23;;;27.18;47.46
14966;BME280;7577;45.226;5.798;2022-09-01T16:58:18;97617.39;;;26.56;51.18
14966;BME280;7577;45.226;5.798;2022-09-01T17:00:59;97625.16;;;26.46;50.92
14966;BME280;7577;45.226;5.798;2022-09-01T17:06:19;97621.17;;;26.44;49.84
14966;BME280;7577;45.226;5.798;2022-09-01T17:08:56;97617.80;;;26.34;50.85